sensor_id;sensor_type;location;lat;lon;timestamp;P1;durP1;ratioP1;P2;durP2;ratioP2
14235;SDS011;7202;50.718;7.072;2023-04-24T00:00:46;1.83;;;0.70;;
14235;SDS011;7202;50.718;7.072;2023-04-24T00:03:17;0.95;;;0.50;;
14235;SDS011;7202;50.718;7.072;2023-04-24T00:05:48;0.50;;;0.50;;
14235;SDS011;7202;50.718;7.072;2023-04-24T00:08:16;1.17;;;0.60;;
14235;SDS011;7202;50.718;7.072;2023-04-24T00:10:45;0.45;;;0.45;;
14235;SDS011;7202;50.718;7.072;2023-04-24T00:13:14;1.13;;;0.60;;
14235;SDS011;7202;50.718;7.072;2023-04-24T00:15:42;0.68;;;0.50;;
14235;SDS011;7202;50.718;7.072;2023-04-24T00:18:11;0.75;;;0.60;;
14235;SDS011;7202;50.718;7.072;2023-04-24T00:20:41;0.70;;;0.40;;
14235;SDS011;7202;50.718;7.072;2023-04-24T00:23:10;0.75;;;0.40;;
14235;SDS011;7202;50.718;7.072;2023-04-24T00:25:41;0.85;;;0.68;;
14235;SDS011;7202;50.718;7.072;2023-04-24T00:28:09;0.40;;;0.40;;
14235;SDS011;7202;50.718;7.072;2023-04-24T00:30:38;2.08;;;0.60;;
14235;SDS011;7202;50.718;7.072;2023-04-24T00:33:07;1.10;;;0.60;;
14235;SDS011;7202;50.718;7.072;2023-04-24T00:35:36;0.77;;;0.50;;
14235;SDS011;7202;50.718;7.072;2023-04-24T00:38:06;1.10;;;0.50;;
14235;SDS011;7202;50.718;7.072;2023-04-24T00:40:35;1.60;;;0.47;;
14235;SDS011;7202;50.718;7.072;2023-04-24T00:43:04;1.35;;;0.60;;
14235;SDS011;7202;50.718;7.072;2023-04-24T00:45:35;0.70;;;0.57;;
14235;SDS011;7202;50.718;7.072;2023-04-24T00:48:04;0.60;;;0.60;;
14235;SDS011;7202;50.718;7.072;2023-04-24T00:50:35;1.48;;;0.50;;
14235;SDS011;7202;50.718;7.072;2023-04-24T00:53:04;0.90;;;0.47;;
14235;SDS011;7202;50.718;7.072;2023-04-24T00:55:34;1.80;;;0.40;;
14235;SDS011;7202;50.718;7.072;2023-04-24T00:58:05;0.60;;;0.50;;
14235;SDS011;7202;50.718;7.072;2023-04-24T01:00:34;0.50;;;0.45;;
14235;SDS011;7202;50.718;7.072;2023-04-24T01:05:33;0.40;;;0.40;;
14235;SDS011;7202;50.718;7.072;2023-04-24T01:08:02;0.45;;;0.45;;
14235;SDS011;7202;50.718;7.072;2023-04-24T01:10:31;1.75;;;0.40;;
14235;SDS011;7202;50.718;7.072;2023-04-24T01:13:04;0.50;;;0.50;;
14235;SDS011;7202;50.718;7.072;2023-04-24T01:15:33;0.40;;;0.40;;
14235;SDS011;7202;50.718;7.072;2023-04-24T01:18:02;0.50;;;0.43;;
14235;SDS011;7202;50.718;7.072;2023-04-24T01:20:30;0.77;;;0.60;;
14235;SDS011;7202;50.718;7.072;2023-04-24T01:23:01;0.75;;;0.68;;
14235;SDS011;7202;50.718;7.072;2023-04-24T01:25:30;1.08;;;0.88;;
14235;SDS011;7202;50.718;7.072;2023-04-24T01:27:59;0.85;;;0.80;;
14235;SDS011;7202;50.718;7.072;2023-04-24T01:30:28;1.60;;;1.17;;
14235;SDS011;7202;50.718;7.072;2023-04-24T01:32:57;1.08;;;0.90;;
14235;SDS011;7202;50.718;7.072;2023-04-24T01:35:27;2.13;;;1.10;;
14235;SDS011;7202;50.718;7.072;2023-04-24T01:37:55;3.45;;;2.38;;
14235;SDS011;7202;50.718;7.072;2023-04-24T01:40:25;1.58;;;1.20;;
14235;SDS011;7202;50.718;7.072;2023-04-24T01:42:56;2.42;;;1.20;;
14235;SDS011;7202;50.718;7.072;2023-04-24T01:45:26;1.45;;;1.23;;
14235;SDS011;7202;50.718;7.072;2023-04-24T01:47:56;1.92;;;1.20;;
14235;SDS011;7202;50.718;7.072;2023-04-24T01:50:25;1.25;;;1.15;;
14235;SDS011;7202;50.718;7.072;2023-04-24T01:52:53;3.67;;;1.60;;
14235;SDS011;7202;50.718;7.072;2023-04-24T01:55:22;2.10;;;1.27;;
14235;SDS011;7202;50.718;7.072;2023-04-24T01:57:52;1.50;;;1.40;;
14235;SDS011;7202;50.718;7.072;2023-04-24T02:00:24;2.22;;;1.40;;
14235;SDS011;7202;50.718;7.072;2023-04-24T02:02:52;1.30;;;1.10;;
14235;SDS011;7202;50.718;7.072;2023-04-24T02:05:21;1.50;;;1.40;;
14235;SDS011;7202;50.718;7.072;2023-04-24T02:07:50;2.90;;;1.40;;
14235;SDS011;7202;50.718;7.072;2023-04-24T02:10:19;2.70;;;1.73;;
14235;SDS011;7202;50.718;7.072;2023-04-24T02:12:48;2.47;;;1.90;;
14235;SDS011;7202;50.718;7.072;2023-04-24T02:15:18;2.85;;;2.20;;
14235;SDS011;7202;50.718;7.072;2023-04-24T02:17:47;3.63;;;2.30;;
14235;SDS011;7202;50.718;7.072;2023-04-24T02:20:15;2.67;;;2.45;;
14235;SDS011;7202;50.718;7.072;2023-04-24T02:22:44;5.63;;;3.08;;
14235;SDS011;7202;50.718;7.072;2023-04-24T02:25:13;2.88;;;2.55;;
14235;SDS011;7202;50.718;7.072;2023-04-24T02:27:41;3.35;;;2.67;;
14235;SDS011;7202;50.718;7.072;2023-04-24T02:30:10;3.30;;;3.00;;
14235;SDS011;7202;50.718;7.072;2023-04-24T02:32:40;3.35;;;2.70;;
14235;SDS011;7202;50.718;7.072;2023-04-24T02:35:10;3.05;;;2.50;;
14235;SDS011;7202;50.718;7.072;2023-04-24T02:37:39;2.50;;;2.30;;
14235;SDS011;7202;50.718;7.072;2023-04-24T02:40:11;6.07;;;2.67;;
14235;SDS011;7202;50.718;7.072;2023-04-24T02:42:40;3.08;;;2.38;;
14235;SDS011;7202;50.718;7.072;2023-04-24T02:45:09;2.90;;;2.60;;
14235;SDS011;7202;50.718;7.072;2023-04-24T02:47:38;3.75;;;2.85;;
14235;SDS011;7202;50.718;7.072;2023-04-24T02:50:08;4.65;;;3.40;;
14235;SDS011;7202;50.718;7.072;2023-04-24T02:52:37;3.53;;;3.03;;
14235;SDS011;7202;50.718;7.072;2023-04-24T02:55:06;3.90;;;2.95;;
14235;SDS011;7202;50.718;7.072;2023-04-24T02:57:35;4.25;;;3.00;;
14235;SDS011;7202;50.718;7.072;2023-04-24T03:00:04;4.40;;;3.28;;
14235;SDS011;7202;50.718;7.072;2023-04-24T03:02:36;3.78;;;3.40;;
14235;SDS011;7202;50.718;7.072;2023-04-24T03:05:07;5.05;;;3.50;;
14235;SDS011;7202;50.718;7.072;2023-04-24T03:07:36;6.45;;;3.80;;
14235;SDS011;7202;50.718;7.072;2023-04-24T03:10:05;5.45;;;3.90;;
14235;SDS011;7202;50.718;7.072;2023-04-24T03:12:35;5.85;;;3.65;;
14235;SDS011;7202;50.718;7.072;2023-04-24T03:15:04;4.72;;;3.95;;
14235;SDS011;7202;50.718;7.072;2023-04-24T03:17:36;5.50;;;4.22;;
14235;SDS011;7202;50.718;7.072;2023-04-24T03:20:07;6.00;;;4.47;;
14235;SDS011;7202;50.718;7.072;2023-04-24T03:22:37;5.53;;;4.00;;
14235;SDS011;7202;50.718;7.072;2023-04-24T03:25:07;6.82;;;4.28;;
14235;SDS011;7202;50.718;7.072;2023-04-24T03:27:37;7.32;;;4.18;;
14235;SDS011;7202;50.718;7.072;2023-04-24T03:30:35;5.93;;;4.30;;
14235;SDS011;7202;50.718;7.072;2023-04-24T03:33:04;7.32;;;4.38;;
14235;SDS011;7202;50.718;7.072;2023-04-24T03:35:38;6.70;;;4.35;;
14235;SDS011;7202;50.718;7.072;2023-04-24T03:38:09;5.25;;;4.18;;
14235;SDS011;7202;50.718;7.072;2023-04-24T03:40:55;5.50;;;3.55;;
14235;SDS011;7202;50.718;7.072;2023-04-24T03:43:37;6.18;;;4.32;;
14235;SDS011;7202;50.718;7.072;2023-04-24T03:46:06;7.72;;;4.18;;
14235;SDS011;7202;50.718;7.072;2023-04-24T03:48:41;5.22;;;4.00;;
14235;SDS011;7202;50.718;7.072;2023-04-24T03:51:11;4.57;;;4.18;;
14235;SDS011;7202;50.718;7.072;2023-04-24T03:53:43;4.88;;;3.72;;
14235;SDS011;7202;50.718;7.072;2023-04-24T03:56:16;5.10;;;4.00;;
14235;SDS011;7202;50.718;7.072;2023-04-24T03:58:45;6.03;;;4.35;;
14235;SDS011;7202;50.718;7.072;2023-04-24T04:01:14;4.95;;;3.80;;
14235;SDS011;7202;50.718;7.072;2023-04-24T04:03:52;4.15;;;3.75;;
14235;SDS011;7202;50.718;7.072;2023-04-24T04:06:25;4.60;;;4.10;;
14235;SDS011;7202;50.718;7.072;2023-04-24T04:08:55;4.95;;;4.10;;
14235;SDS011;7202;50.718;7.072;2023-04-24T04:11:24;4.60;;;3.88;;
14235;SDS011;7202;50.718;7.072;2023-04-24T04:13:53;5.78;;;4.15;;
14235;SDS011;7202;50.718;7.072;2023-04-24T04:16:22;4.47;;;4.05;;
14235;SDS011;7202;50.718;7.072;2023-04-24T04:18:56;6.88;;;3.85;;
14235;SDS011;7202;50.718;7.072;2023-04-24T04:21:26;4.10;;;3.70;;
14235;SDS011;7202;50.718;7.072;2023-04-24T04:24:04;5.15;;;3.97;;
14235;SDS011;7202;50.718;7.072;2023-04-24T04:26:38;6.03;;;4.05;;
14235;SDS011;7202;50.718;7.072;2023-04-24T04:29:09;6.53;;;3.97;;
14235;SDS011;7202;50.718;7.072;2023-04-24T04:31:42;7.03;;;4.18;;
14235;SDS011;7202;50.718;7.072;2023-04-24T04:34:12;4.85;;;4.00;;
14235;SDS011;7202;50.718;7.072;2023-04-24T04:36:42;5.32;;;3.92;;
14235;SDS011;7202;50.718;7.072;2023-04-24T04:39:34;6.30;;;4.15;;
14235;SDS011;7202;50.718;7.072;2023-04-24T04:42:05;6.93;;;4.40;;
14235;SDS011;7202;50.718;7.072;2023-04-24T04:44:39;5.13;;;4.35;;
14235;SDS011;7202;50.718;7.072;2023-04-24T04:47:12;4.22;;;3.83;;
14235;SDS011;7202;50.718;7.072;2023-04-24T04:49:41;4.63;;;4.10;;
14235;SDS011;7202;50.718;7.072;2023-04-24T04:52:21;7.20;;;4.60;;
14235;SDS011;7202;50.718;7.072;2023-04-24T04:54:57;4.82;;;4.03;;
14235;SDS011;7202;50.718;7.072;2023-04-24T04:57:40;5.35;;;4.20;;
14235;SDS011;7202;50.718;7.072;2023-04-24T05:00:09;5.40;;;4.47;;
14235;SDS011;7202;50.718;7.072;2023-04-24T05:02:46;4.50;;;3.72;;
14235;SDS011;7202;50.718;7.072;2023-04-24T05:05:15;9.20;;;4.10;;
14235;SDS011;7202;50.718;7.072;2023-04-24T05:07:46;6.00;;;4.53;;
14235;SDS011;7202;50.718;7.072;2023-04-24T05:10:15;6.65;;;5.20;;
14235;SDS011;7202;50.718;7.072;2023-04-24T05:12:44;10.43;;;4.40;;
14235;SDS011;7202;50.718;7.072;2023-04-24T05:15:12;7.10;;;4.20;;
14235;SDS011;7202;50.718;7.072;2023-04-24T05:17:41;5.85;;;4.32;;
14235;SDS011;7202;50.718;7.072;2023-04-24T05:20:11;5.78;;;3.67;;
14235;SDS011;7202;50.718;7.072;2023-04-24T05:22:40;6.50;;;4.40;;
14235;SDS011;7202;50.718;7.072;2023-04-24T05:25:10;5.88;;;4.70;;
14235;SDS011;7202;50.718;7.072;2023-04-24T05:27:53;5.43;;;4.20;;
14235;SDS011;7202;50.718;7.072;2023-04-24T05:30:22;4.88;;;4.13;;
14235;SDS011;7202;50.718;7.072;2023-04-24T05:32:51;7.45;;;4.65;;
14235;SDS011;7202;50.718;7.072;2023-04-24T05:35:20;5.75;;;4.13;;
14235;SDS011;7202;50.718;7.072;2023-04-24T05:37:48;4.68;;;4.28;;
14235;SDS011;7202;50.718;7.072;2023-04-24T05:40:19;5.28;;;3.97;;
14235;SDS011;7202;50.718;7.072;2023-04-24T05:42:47;4.95;;;3.88;;
14235;SDS011;7202;50.718;7.072;2023-04-24T05:45:16;4.57;;;3.85;;
14235;SDS011;7202;50.718;7.072;2023-04-24T05:47:45;6.75;;;4.50;;
14235;SDS011;7202;50.718;7.072;2023-04-24T05:50:14;4.80;;;4.32;;
14235;SDS011;7202;50.718;7.072;2023-04-24T05:52:42;6.55;;;4.28;;
14235;SDS011;7202;50.718;7.072;2023-04-24T05:55:24;5.20;;;4.32;;
14235;SDS011;7202;50.718;7.072;2023-04-24T05:57:53;5.10;;;4.47;;
14235;SDS011;7202;50.718;7.072;2023-04-24T06:00:25;5.95;;;4.40;;
14235;SDS011;7202;50.718;7.072;2023-04-24T06:03:02;5.18;;;4.53;;
14235;SDS011;7202;50.718;7.072;2023-04-24T06:05:31;6.22;;;4.10;;
14235;SDS011;7202;50.718;7.072;2023-04-24T06:08:02;5.95;;;4.35;;
14235;SDS011;7202;50.718;7.072;2023-04-24T06:10:36;6.30;;;4.60;;
14235;SDS011;7202;50.718;7.072;2023-04-24T06:13:07;7.53;;;4.55;;
14235;SDS011;7202;50.718;7.072;2023-04-24T06:15:38;5.70;;;4.50;;
14235;SDS011;7202;50.718;7.072;2023-04-24T06:18:10;5.43;;;4.53;;
14235;SDS011;7202;50.718;7.072;2023-04-24T06:20:40;4.47;;;4.05;;
14235;SDS011;7202;50.718;7.072;2023-04-24T06:23:09;6.07;;;4.80;;
14235;SDS011;7202;50.718;7.072;2023-04-24T06:25:39;5.35;;;4.63;;
14235;SDS011;7202;50.718;7.072;2023-04-24T06:28:11;9.18;;;4.80;;
14235;SDS011;7202;50.718;7.072;2023-04-24T06:30:40;6.78;;;4.82;;
14235;SDS011;7202;50.718;7.072;2023-04-24T06:33:11;5.63;;;4.50;;
14235;SDS011;7202;50.718;7.072;2023-04-24T06:35:45;6.43;;;4.45;;
14235;SDS011;7202;50.718;7.072;2023-04-24T06:38:13;8.80;;;4.60;;
14235;SDS011;7202;50.718;7.072;2023-04-24T06:40:44;5.03;;;4.07;;
14235;SDS011;7202;50.718;7.072;2023-04-24T06:43:13;5.85;;;3.97;;
14235;SDS011;7202;50.718;7.072;2023-04-24T06:45:42;4.43;;;3.70;;
14235;SDS011;7202;50.718;7.072;2023-04-24T06:48:12;7.80;;;4.10;;
14235;SDS011;7202;50.718;7.072;2023-04-24T06:50:40;4.88;;;4.30;;
14235;SDS011;7202;50.718;7.072;2023-04-24T06:53:09;6.28;;;4.15;;
14235;SDS011;7202;50.718;7.072;2023-04-24T06:55:39;4.75;;;3.88;;
14235;SDS011;7202;50.718;7.072;2023-04-24T06:58:11;4.95;;;4.00;;
14235;SDS011;7202;50.718;7.072;2023-04-24T07:00:40;5.80;;;4.13;;
14235;SDS011;7202;50.718;7.072;2023-04-24T07:03:09;4.38;;;3.55;;
14235;SDS011;7202;50.718;7.072;2023-04-24T07:05:37;5.63;;;3.67;;
14235;SDS011;7202;50.718;7.072;2023-04-24T07:08:07;5.63;;;3.55;;
14235;SDS011;7202;50.718;7.072;2023-04-24T07:10:35;5.13;;;3.55;;
14235;SDS011;7202;50.718;7.072;2023-04-24T07:13:04;5.75;;;3.60;;
14235;SDS011;7202;50.718;7.072;2023-04-24T07:15:35;4.38;;;3.22;;
14235;SDS011;7202;50.718;7.072;2023-04-24T07:18:04;4.22;;;3.22;;
14235;SDS011;7202;50.718;7.072;2023-04-24T07:20:32;3.83;;;2.83;;
14235;SDS011;7202;50.718;7.072;2023-04-24T07:23:01;5.82;;;2.85;;
14235;SDS011;7202;50.718;7.072;2023-04-24T07:25:30;3.97;;;2.47;;
14235;SDS011;7202;50.718;7.072;2023-04-24T07:27:59;4.28;;;3.00;;
14235;SDS011;7202;50.718;7.072;2023-04-24T07:30:28;4.22;;;2.25;;
14235;SDS011;7202;50.718;7.072;2023-04-24T07:32:58;2.85;;;2.47;;
14235;SDS011;7202;50.718;7.072;2023-04-24T07:35:27;2.58;;;2.35;;
14235;SDS011;7202;50.718;7.072;2023-04-24T07:37:55;4.40;;;2.40;;
14235;SDS011;7202;50.718;7.072;2023-04-24T07:40:24;2.35;;;1.95;;
14235;SDS011;7202;50.718;7.072;2023-04-24T07:42:53;4.30;;;2.00;;
14235;SDS011;7202;50.718;7.072;2023-04-24T07:45:21;2.17;;;1.90;;
14235;SDS011;7202;50.718;7.072;2023-04-24T07:47:52;3.38;;;1.95;;
14235;SDS011;7202;50.718;7.072;2023-04-24T07:50:23;2.05;;;1.60;;
14235;SDS011;7202;50.718;7.072;2023-04-24T07:52:51;2.63;;;1.80;;
14235;SDS011;7202;50.718;7.072;2023-04-24T07:55:20;3.05;;;1.88;;
14235;SDS011;7202;50.718;7.072;2023-04-24T07:57:52;2.10;;;1.90;;
14235;SDS011;7202;50.718;7.072;2023-04-24T08:00:20;3.50;;;1.63;;
14235;SDS011;7202;50.718;7.072;2023-04-24T08:02:49;2.45;;;1.95;;
14235;SDS011;7202;50.718;7.072;2023-04-24T08:05:18;1.67;;;1.40;;
14235;SDS011;7202;50.718;7.072;2023-04-24T08:07:48;2.53;;;1.20;;
14235;SDS011;7202;50.718;7.072;2023-04-24T08:10:17;1.60;;;1.20;;
14235;SDS011;7202;50.718;7.072;2023-04-24T08:12:46;2.88;;;1.17;;
14235;SDS011;7202;50.718;7.072;2023-04-24T08:15:14;2.03;;;1.10;;
14235;SDS011;7202;50.718;7.072;2023-04-24T08:17:43;1.60;;;1.20;;
14235;SDS011;7202;50.718;7.072;2023-04-24T08:20:12;2.10;;;1.40;;
14235;SDS011;7202;50.718;7.072;2023-04-24T08:22:41;1.10;;;1.00;;
14235;SDS011;7202;50.718;7.072;2023-04-24T08:25:12;1.67;;;1.35;;
14235;SDS011;7202;50.718;7.072;2023-04-24T08:27:40;3.28;;;1.65;;
14235;SDS011;7202;50.718;7.072;2023-04-24T08:30:09;1.80;;;1.65;;
14235;SDS011;7202;50.718;7.072;2023-04-24T08:32:38;3.03;;;1.67;;
14235;SDS011;7202;50.718;7.072;2023-04-24T08:35:07;4.15;;;2.00;;
14235;SDS011;7202;50.718;7.072;2023-04-24T08:37:37;2.22;;;1.83;;
14235;SDS011;7202;50.718;7.072;2023-04-24T08:40:06;2.45;;;1.67;;
14235;SDS011;7202;50.718;7.072;2023-04-24T08:42:42;2.90;;;1.90;;
14235;SDS011;7202;50.718;7.072;2023-04-24T08:45:12;1.92;;;1.48;;
14235;SDS011;7202;50.718;7.072;2023-04-24T08:47:41;2.13;;;1.45;;
14235;SDS011;7202;50.718;7.072;2023-04-24T08:50:11;2.67;;;1.85;;
14235;SDS011;7202;50.718;7.072;2023-04-24T08:52:39;5.45;;;2.13;;
14235;SDS011;7202;50.718;7.072;2023-04-24T08:55:09;3.65;;;2.83;;
14235;SDS011;7202;50.718;7.072;2023-04-24T08:57:40;4.10;;;2.97;;
14235;SDS011;7202;50.718;7.072;2023-04-24T09:00:11;3.83;;;2.67;;
14235;SDS011;7202;50.718;7.072;2023-04-24T09:02:41;5.03;;;2.97;;
14235;SDS011;7202;50.718;7.072;2023-04-24T09:05:11;3.30;;;2.42;;
14235;SDS011;7202;50.718;7.072;2023-04-24T09:07:42;5.55;;;2.75;;
14235;SDS011;7202;50.718;7.072;2023-04-24T09:10:13;3.72;;;2.78;;
14235;SDS011;7202;50.718;7.072;2023-04-24T09:12:43;3.80;;;3.10;;
14235;SDS011;7202;50.718;7.072;2023-04-24T09:15:12;4.47;;;2.88;;
14235;SDS011;7202;50.718;7.072;2023-04-24T09:17:41;3.95;;;3.35;;
14235;SDS011;7202;50.718;7.072;2023-04-24T09:20:11;4.43;;;3.15;;
14235;SDS011;7202;50.718;7.072;2023-04-24T09:22:40;5.03;;;3.58;;
14235;SDS011;7202;50.718;7.072;2023-04-24T09:25:10;6.78;;;3.97;;
14235;SDS011;7202;50.718;7.072;2023-04-24T09:27:44;3.83;;;3.30;;
14235;SDS011;7202;50.718;7.072;2023-04-24T09:30:13;3.58;;;3.08;;
14235;SDS011;7202;50.718;7.072;2023-04-24T09:32:48;4.43;;;3.20;;
14235;SDS011;7202;50.718;7.072;2023-04-24T09:35:17;3.83;;;3.33;;
14235;SDS011;7202;50.718;7.072;2023-04-24T09:37:46;5.97;;;3.60;;
14235;SDS011;7202;50.718;7.072;2023-04-24T09:40:17;5.10;;;4.22;;
14235;SDS011;7202;50.718;7.072;2023-04-24T09:42:52;5.55;;;3.30;;
14235;SDS011;7202;50.718;7.072;2023-04-24T09:45:22;6.40;;;3.60;;
14235;SDS011;7202;50.718;7.072;2023-04-24T09:47:55;4.80;;;3.63;;
14235;SDS011;7202;50.718;7.072;2023-04-24T09:50:24;5.15;;;3.47;;
14235;SDS011;7202;50.718;7.072;2023-04-24T09:52:56;4.53;;;3.33;;
14235;SDS011;7202;50.718;7.072;2023-04-24T09:55:25;4.47;;;3.20;;
14235;SDS011;7202;50.718;7.072;2023-04-24T09:57:56;5.63;;;3.40;;
14235;SDS011;7202;50.718;7.072;2023-04-24T10:00:27;7.13;;;2.92;;
14235;SDS011;7202;50.718;7.072;2023-04-24T10:02:57;4.00;;;3.17;;
14235;SDS011;7202;50.718;7.072;2023-04-24T10:05:28;4.88;;;3.13;;
14235;SDS011;7202;50.718;7.072;2023-04-24T10:08:00;3.22;;;2.83;;
14235;SDS011;7202;50.718;7.072;2023-04-24T10:10:30;7.38;;;2.85;;
14235;SDS011;7202;50.718;7.072;2023-04-24T10:13:00;5.30;;;3.35;;
14235;SDS011;7202;50.718;7.072;2023-04-24T10:15:29;6.65;;;3.45;;
14235;SDS011;7202;50.718;7.072;2023-04-24T10:17:58;5.60;;;3.40;;
14235;SDS011;7202;50.718;7.072;2023-04-24T10:20:29;5.35;;;3.20;;
14235;SDS011;7202;50.718;7.072;2023-04-24T10:22:58;6.43;;;3.70;;
14235;SDS011;7202;50.718;7.072;2023-04-24T10:25:28;4.78;;;3.63;;
14235;SDS011;7202;50.718;7.072;2023-04-24T10:27:58;4.57;;;3.53;;
14235;SDS011;7202;50.718;7.072;2023-04-24T10:30:29;8.18;;;3.17;;
14235;SDS011;7202;50.718;7.072;2023-04-24T10:33:02;5.75;;;3.22;;
14235;SDS011;7202;50.718;7.072;2023-04-24T10:35:32;5.18;;;3.70;;
14235;SDS011;7202;50.718;7.072;2023-04-24T10:38:03;4.63;;;3.88;;
14235;SDS011;7202;50.718;7.072;2023-04-24T10:40:35;6.22;;;3.15;;
14235;SDS011;7202;50.718;7.072;2023-04-24T10:43:05;6.82;;;3.58;;
14235;SDS011;7202;50.718;7.072;2023-04-24T10:45:38;7.18;;;4.43;;
14235;SDS011;7202;50.718;7.072;2023-04-24T10:48:07;5.97;;;3.42;;
14235;SDS011;7202;50.718;7.072;2023-04-24T10:50:44;7.88;;;3.92;;
14235;SDS011;7202;50.718;7.072;2023-04-24T10:53:14;6.32;;;3.67;;
14235;SDS011;7202;50.718;7.072;2023-04-24T10:55:46;9.73;;;3.92;;
14235;SDS011;7202;50.718;7.072;2023-04-24T10:58:16;7.00;;;4.43;;
14235;SDS011;7202;50.718;7.072;2023-04-24T11:00:56;7.43;;;4.55;;
14235;SDS011;7202;50.718;7.072;2023-04-24T11:03:26;11.32;;;5.07;;
14235;SDS011;7202;50.718;7.072;2023-04-24T11:05:56;8.68;;;4.78;;
14235;SDS011;7202;50.718;7.072;2023-04-24T11:08:28;6.55;;;5.13;;
14235;SDS011;7202;50.718;7.072;2023-04-24T11:10:59;9.00;;;5.70;;
14235;SDS011;7202;50.718;7.072;2023-04-24T11:16:33;9.27;;;6.97;;
14235;SDS011;7202;50.718;7.072;2023-04-24T11:19:08;8.52;;;6.47;;
14235;SDS011;7202;50.718;7.072;2023-04-24T11:21:41;12.45;;;7.20;;
14235;SDS011;7202;50.718;7.072;2023-04-24T11:24:24;23.77;;;9.32;;
14235;SDS011;7202;50.718;7.072;2023-04-24T11:26:54;13.35;;;6.30;;
14235;SDS011;7202;50.718;7.072;2023-04-24T11:29:30;17.23;;;8.93;;
14235;SDS011;7202;50.718;7.072;2023-04-24T11:32:27;14.25;;;7.30;;
14235;SDS011;7202;50.718;7.072;2023-04-24T11:34:58;10.63;;;6.22;;
14235;SDS011;7202;50.718;7.072;2023-04-24T11:37:29;9.13;;;6.63;;
14235;SDS011;7202;50.718;7.072;2023-04-24T11:40:01;12.77;;;6.10;;
14235;SDS011;7202;50.718;7.072;2023-04-24T11:42:33;8.88;;;5.90;;
14235;SDS011;7202;50.718;7.072;2023-04-24T11:45:07;12.23;;;5.43;;
14235;SDS011;7202;50.718;7.072;2023-04-24T11:47:38;8.77;;;5.45;;
14235;SDS011;7202;50.718;7.072;2023-04-24T11:50:08;10.30;;;4.97;;
14235;SDS011;7202;50.718;7.072;2023-04-24T11:52:39;9.75;;;4.80;;
14235;SDS011;7202;50.718;7.072;2023-04-24T11:55:12;8.15;;;4.72;;
14235;SDS011;7202;50.718;7.072;2023-04-24T11:57:53;9.48;;;5.13;;
14235;SDS011;7202;50.718;7.072;2023-04-24T12:00:24;11.65;;;5.35;;
14235;SDS011;7202;50.718;7.072;2023-04-24T12:03:04;8.25;;;4.95;;
14235;SDS011;7202;50.718;7.072;2023-04-24T12:05:34;6.47;;;4.57;;
14235;SDS011;7202;50.718;7.072;2023-04-24T12:08:03;12.63;;;5.88;;
14235;SDS011;7202;50.718;7.072;2023-04-24T12:10:33;8.07;;;5.07;;
14235;SDS011;7202;50.718;7.072;2023-04-24T12:13:02;9.88;;;5.57;;
14235;SDS011;7202;50.718;7.072;2023-04-24T12:15:31;8.48;;;5.30;;
14235;SDS011;7202;50.718;7.072;2023-04-24T12:17:59;7.20;;;5.35;;
14235;SDS011;7202;50.718;7.072;2023-04-24T12:20:31;8.25;;;5.68;;
14235;SDS011;7202;50.718;7.072;2023-04-24T12:23:00;8.48;;;5.07;;
14235;SDS011;7202;50.718;7.072;2023-04-24T12:25:30;11.05;;;5.68;;
14235;SDS011;7202;50.718;7.072;2023-04-24T12:28:08;9.32;;;6.50;;
14235;SDS011;7202;50.718;7.072;2023-04-24T12:30:39;11.45;;;6.60;;
14235;SDS011;7202;50.718;7.072;2023-04-24T12:33:11;11.13;;;7.00;;
14235;SDS011;7202;50.718;7.072;2023-04-24T12:35:41;10.93;;;6.18;;
14235;SDS011;7202;50.718;7.072;2023-04-24T12:38:10;9.05;;;6.47;;
14235;SDS011;7202;50.718;7.072;2023-04-24T12:40:40;9.55;;;6.25;;
14235;SDS011;7202;50.718;7.072;2023-04-24T12:43:13;8.88;;;5.93;;
14235;SDS011;7202;50.718;7.072;2023-04-24T12:45:43;11.13;;;6.05;;
14235;SDS011;7202;50.718;7.072;2023-04-24T12:48:12;9.07;;;5.80;;
14235;SDS011;7202;50.718;7.072;2023-04-24T12:50:43;10.77;;;6.35;;
14235;SDS011;7202;50.718;7.072;2023-04-24T12:53:13;12.35;;;6.63;;
14235;SDS011;7202;50.718;7.072;2023-04-24T12:55:42;10.18;;;6.82;;
14235;SDS011;7202;50.718;7.072;2023-04-24T12:58:13;7.60;;;6.03;;
14235;SDS011;7202;50.718;7.072;2023-04-24T13:00:42;9.02;;;5.60;;
14235;SDS011;7202;50.718;7.072;2023-04-24T13:03:12;7.03;;;4.78;;
14235;SDS011;7202;50.718;7.072;2023-04-24T13:05:43;9.88;;;5.30;;
14235;SDS011;7202;50.718;7.072;2023-04-24T13:08:12;9.32;;;5.25;;
14235;SDS011;7202;50.718;7.072;2023-04-24T13:10:41;7.75;;;4.60;;
14235;SDS011;7202;50.718;7.072;2023-04-24T13:13:10;7.53;;;3.95;;
14235;SDS011;7202;50.718;7.072;2023-04-24T13:15:38;7.03;;;3.60;;
14235;SDS011;7202;50.718;7.072;2023-04-24T13:18:07;7.15;;;4.03;;
14235;SDS011;7202;50.718;7.072;2023-04-24T13:20:35;5.57;;;4.03;;
14235;SDS011;7202;50.718;7.072;2023-04-24T13:23:06;5.82;;;3.90;;
14235;SDS011;7202;50.718;7.072;2023-04-24T13:25:35;6.68;;;4.22;;
14235;SDS011;7202;50.718;7.072;2023-04-24T13:28:06;7.20;;;4.13;;
14235;SDS011;7202;50.718;7.072;2023-04-24T13:30:34;9.75;;;4.15;;
14235;SDS011;7202;50.718;7.072;2023-04-24T13:33:03;9.55;;;4.25;;
14235;SDS011;7202;50.718;7.072;2023-04-24T13:35:32;6.35;;;4.10;;
14235;SDS011;7202;50.718;7.072;2023-04-24T13:38:00;8.70;;;4.15;;
14235;SDS011;7202;50.718;7.072;2023-04-24T13:40:34;8.02;;;4.32;;
14235;SDS011;7202;50.718;7.072;2023-04-24T13:43:02;7.63;;;4.72;;
14235;SDS011;7202;50.718;7.072;2023-04-24T13:45:31;6.82;;;4.18;;
14235;SDS011;7202;50.718;7.072;2023-04-24T13:48:00;8.45;;;4.10;;
14235;SDS011;7202;50.718;7.072;2023-04-24T13:50:29;6.03;;;4.40;;
14235;SDS011;7202;50.718;7.072;2023-04-24T13:52:58;5.10;;;3.70;;
14235;SDS011;7202;50.718;7.072;2023-04-24T13:55:28;6.20;;;4.38;;
14235;SDS011;7202;50.718;7.072;2023-04-24T13:57:59;6.82;;;3.88;;
14235;SDS011;7202;50.718;7.072;2023-04-24T14:00:28;6.45;;;4.40;;
14235;SDS011;7202;50.718;7.072;2023-04-24T14:02:57;9.63;;;4.85;;
14235;SDS011;7202;50.718;7.072;2023-04-24T14:05:26;7.25;;;4.30;;
14235;SDS011;7202;50.718;7.072;2023-04-24T14:07:55;9.48;;;5.55;;
14235;SDS011;7202;50.718;7.072;2023-04-24T14:10:24;8.77;;;4.93;;
14235;SDS011;7202;50.718;7.072;2023-04-24T14:12:54;10.38;;;4.15;;
14235;SDS011;7202;50.718;7.072;2023-04-24T14:15:24;9.85;;;4.65;;
14235;SDS011;7202;50.718;7.072;2023-04-24T14:17:52;10.13;;;5.15;;
14235;SDS011;7202;50.718;7.072;2023-04-24T14:20:22;7.53;;;5.28;;
14235;SDS011;7202;50.718;7.072;2023-04-24T14:22:50;7.95;;;5.05;;
14235;SDS011;7202;50.718;7.072;2023-04-24T14:25:20;10.52;;;6.13;;
14235;SDS011;7202;50.718;7.072;2023-04-24T14:27:49;10.90;;;5.85;;
14235;SDS011;7202;50.718;7.072;2023-04-24T14:30:18;10.50;;;6.00;;
14235;SDS011;7202;50.718;7.072;2023-04-24T14:32:48;7.68;;;4.78;;
14235;SDS011;7202;50.718;7.072;2023-04-24T14:35:17;8.43;;;5.32;;
14235;SDS011;7202;50.718;7.072;2023-04-24T14:37:45;8.38;;;4.80;;
14235;SDS011;7202;50.718;7.072;2023-04-24T14:40:15;8.68;;;5.38;;
14235;SDS011;7202;50.718;7.072;2023-04-24T14:43:03;8.93;;;4.80;;
14235;SDS011;7202;50.718;7.072;2023-04-24T14:45:33;13.80;;;6.35;;
14235;SDS011;7202;50.718;7.072;2023-04-24T14:48:03;8.02;;;5.22;;
14235;SDS011;7202;50.718;7.072;2023-04-24T14:50:32;7.90;;;4.93;;
14235;SDS011;7202;50.718;7.072;2023-04-24T14:53:01;9.23;;;5.20;;
14235;SDS011;7202;50.718;7.072;2023-04-24T14:55:29;6.18;;;4.35;;
14235;SDS011;7202;50.718;7.072;2023-04-24T14:58:03;6.68;;;4.00;;
14235;SDS011;7202;50.718;7.072;2023-04-24T15:00:32;9.43;;;4.78;;
14235;SDS011;7202;50.718;7.072;2023-04-24T15:03:00;7.97;;;4.85;;
14235;SDS011;7202;50.718;7.072;2023-04-24T15:05:31;6.75;;;4.28;;
14235;SDS011;7202;50.718;7.072;2023-04-24T15:08:00;7.18;;;3.70;;
14235;SDS011;7202;50.718;7.072;2023-04-24T15:10:29;5.65;;;4.15;;
14235;SDS011;7202;50.718;7.072;2023-04-24T15:12:57;5.85;;;4.00;;
14235;SDS011;7202;50.718;7.072;2023-04-24T15:15:26;6.13;;;3.60;;
14235;SDS011;7202;50.718;7.072;2023-04-24T15:17:54;5.53;;;3.97;;
14235;SDS011;7202;50.718;7.072;2023-04-24T15:20:23;4.88;;;3.50;;
14235;SDS011;7202;50.718;7.072;2023-04-24T15:22:53;7.05;;;3.88;;
14235;SDS011;7202;50.718;7.072;2023-04-24T15:25:22;5.93;;;4.15;;